sensor_id;sensor_type;location;lat;lon;timestamp;P1;durP1;ratioP1;P2;durP2;ratioP2
40459;SDS011;26164;51.138;16.952;2023-10-31T00:00:23;9.18;;;3.17;;
40459;SDS011;26164;51.138;16.952;2023-10-31T00:03:09;9.77;;;2.40;;
40459;SDS011;26164;51.138;16.952;2023-10-31T00:05:35;8.50;;;2.90;;
40459;SDS011;26164;51.138;16.952;2023-10-31T00:08:01;7.90;;;2.70;;
40459;SDS011;26164;51.138;16.952;2023-10-31T00:10:27;7.82;;;3.05;;
40459;SDS011;26164;51.138;16.952;2023-10-31T00:12:53;6.63;;;2.72;;
40459;SDS011;26164;51.138;16.952;2023-10-31T00:15:19;9.57;;;2.70;;
40459;SDS011;26164;51.138;16.952;2023-10-31T00:17:45;9.05;;;2.83;;
40459;SDS011;26164;51.138;16.952;2023-10-31T00:20:10;6.82;;;2.80;;
40459;SDS011;26164;51.138;16.952;2023-10-31T00:22:36;8.13;;;2.58;;
40459;SDS011;26164;51.138;16.952;2023-10-31T00:25:02;6.57;;;2.42;;
40459;SDS011;26164;51.138;16.952;2023-10-31T00:27:28;10.10;;;3.00;;
40459;SDS011;26164;51.138;16.952;2023-10-31T00:29:53;7.40;;;2.80;;
40459;SDS011;26164;51.138;16.952;2023-10-31T00:32:21;10.52;;;3.35;;
40459;SDS011;26164;51.138;16.952;2023-10-31T00:34:47;11.32;;;2.80;;
40459;SDS011;26164;51.138;16.952;2023-10-31T00:37:13;7.15;;;3.13;;
40459;SDS011;26164;51.138;16.952;2023-10-31T00:39:39;8.88;;;2.78;;
40459;SDS011;26164;51.138;16.952;2023-10-31T00:42:05;8.25;;;3.15;;
40459;SDS011;26164;51.138;16.952;2023-10-31T00:44:30;11.50;;;2.80;;
40459;SDS011;26164;51.138;16.952;2023-10-31T00:46:56;7.68;;;2.70;;
40459;SDS011;26164;51.138;16.952;2023-10-31T00:49:23;7.03;;;2.47;;
40459;SDS011;26164;51.138;16.952;2023-10-31T00:51:48;7.15;;;2.42;;
40459;SDS011;26164;51.138;16.952;2023-10-31T00:54:14;6.65;;;2.35;;
40459;SDS011;26164;51.138;16.952;2023-10-31T00:56:40;6.18;;;2.50;;
40459;SDS011;26164;51.138;16.952;2023-10-31T00:59:05;7.50;;;2.65;;
40459;SDS011;26164;51.138;16.952;2023-10-31T01:01:31;9.07;;;3.58;;
40459;SDS011;26164;51.138;16.952;2023-10-31T01:03:57;8.73;;;2.53;;
40459;SDS011;26164;51.138;16.952;2023-10-31T01:06:24;7.82;;;2.63;;
40459;SDS011;26164;51.138;16.952;2023-10-31T01:08:50;6.43;;;2.78;;
40459;SDS011;26164;51.138;16.952;2023-10-31T01:11:15;7.68;;;2.72;;
40459;SDS011;26164;51.138;16.952;2023-10-31T01:13:41;7.10;;;2.50;;
40459;SDS011;26164;51.138;16.952;2023-10-31T01:16:07;6.35;;;2.63;;
40459;SDS011;26164;51.138;16.952;2023-10-31T01:18:33;8.55;;;2.50;;
40459;SDS011;26164;51.138;16.952;2023-10-31T01:20:59;8.32;;;2.30;;
40459;SDS011;26164;51.138;16.952;2023-10-31T01:23:24;8.75;;;2.22;;
40459;SDS011;26164;51.138;16.952;2023-10-31T01:25:51;10.77;;;2.60;;
40459;SDS011;26164;51.138;16.952;2023-10-31T01:28:17;7.55;;;2.05;;
40459;SDS011;26164;51.138;16.952;2023-10-31T01:30:43;5.88;;;1.98;;
40459;SDS011;26164;51.138;16.952;2023-10-31T01:33:08;9.38;;;2.30;;
40459;SDS011;26164;51.138;16.952;2023-10-31T01:35:34;5.68;;;2.45;;
40459;SDS011;26164;51.138;16.952;2023-10-31T01:38:00;6.50;;;2.70;;
40459;SDS011;26164;51.138;16.952;2023-10-31T01:40:26;6.70;;;1.83;;
40459;SDS011;26164;51.138;16.952;2023-10-31T01:42:52;5.40;;;2.20;;
40459;SDS011;26164;51.138;16.952;2023-10-31T01:45:18;6.50;;;2.05;;
40459;SDS011;26164;51.138;16.952;2023-10-31T01:47:44;10.27;;;2.03;;
40459;SDS011;26164;51.138;16.952;2023-10-31T01:50:14;6.50;;;1.95;;
40459;SDS011;26164;51.138;16.952;2023-10-31T01:52:39;7.22;;;1.85;;
40459;SDS011;26164;51.138;16.952;2023-10-31T01:55:05;6.25;;;1.90;;
40459;SDS011;26164;51.138;16.952;2023-10-31T01:57:32;9.55;;;1.85;;
40459;SDS011;26164;51.138;16.952;2023-10-31T01:59:58;5.40;;;1.70;;
40459;SDS011;26164;51.138;16.952;2023-10-31T02:02:24;5.10;;;1.73;;
40459;SDS011;26164;51.138;16.952;2023-10-31T02:04:52;4.35;;;1.90;;
40459;SDS011;26164;51.138;16.952;2023-10-31T02:07:18;7.10;;;2.13;;
40459;SDS011;26164;51.138;16.952;2023-10-31T02:09:45;4.72;;;1.73;;
40459;SDS011;26164;51.138;16.952;2023-10-31T02:12:10;7.13;;;2.03;;
40459;SDS011;26164;51.138;16.952;2023-10-31T02:14:36;8.10;;;2.08;;
40459;SDS011;26164;51.138;16.952;2023-10-31T02:17:02;7.65;;;2.03;;
40459;SDS011;26164;51.138;16.952;2023-10-31T02:19:28;4.03;;;1.85;;
40459;SDS011;26164;51.138;16.952;2023-10-31T02:21:54;10.52;;;3.95;;
40459;SDS011;26164;51.138;16.952;2023-10-31T02:24:20;6.65;;;1.90;;
40459;SDS011;26164;51.138;16.952;2023-10-31T02:26:45;3.85;;;1.70;;
40459;SDS011;26164;51.138;16.952;2023-10-31T02:29:11;5.53;;;1.85;;
40459;SDS011;26164;51.138;16.952;2023-10-31T02:31:37;8.38;;;2.00;;
40459;SDS011;26164;51.138;16.952;2023-10-31T02:34:03;7.50;;;1.98;;
40459;SDS011;26164;51.138;16.952;2023-10-31T02:36:28;4.97;;;1.70;;
40459;SDS011;26164;51.138;16.952;2023-10-31T02:38:54;5.35;;;1.60;;
40459;SDS011;26164;51.138;16.952;2023-10-31T02:41:20;5.53;;;1.90;;
40459;SDS011;26164;51.138;16.952;2023-10-31T02:43:45;8.23;;;1.52;;
40459;SDS011;26164;51.138;16.952;2023-10-31T02:46:11;5.85;;;1.58;;
40459;SDS011;26164;51.138;16.952;2023-10-31T02:48:39;6.55;;;1.30;;
40459;SDS011;26164;51.138;16.952;2023-10-31T02:51:06;4.63;;;1.30;;
40459;SDS011;26164;51.138;16.952;2023-10-31T02:53:35;5.05;;;1.20;;
40459;SDS011;26164;51.138;16.952;2023-10-31T02:56:01;4.07;;;1.17;;
40459;SDS011;26164;51.138;16.952;2023-10-31T02:58:28;4.25;;;1.20;;
40459;SDS011;26164;51.138;16.952;2023-10-31T03:00:53;4.78;;;1.15;;
40459;SDS011;26164;51.138;16.952;2023-10-31T03:03:19;5.82;;;1.08;;
40459;SDS011;26164;51.138;16.952;2023-10-31T03:05:45;4.40;;;1.25;;
40459;SDS011;26164;51.138;16.952;2023-10-31T03:08:12;7.05;;;1.08;;
40459;SDS011;26164;51.138;16.952;2023-10-31T03:10:38;4.30;;;1.20;;
40459;SDS011;26164;51.138;16.952;2023-10-31T03:13:04;4.32;;;1.30;;
40459;SDS011;26164;51.138;16.952;2023-10-31T03:15:30;6.10;;;1.20;;
40459;SDS011;26164;51.138;16.952;2023-10-31T03:17:57;3.75;;;1.35;;
40459;SDS011;26164;51.138;16.952;2023-10-31T03:20:23;10.15;;;1.45;;
40459;SDS011;26164;51.138;16.952;2023-10-31T03:22:48;4.85;;;1.25;;
40459;SDS011;26164;51.138;16.952;2023-10-31T03:25:14;4.30;;;1.17;;
40459;SDS011;26164;51.138;16.952;2023-10-31T03:27:40;7.00;;;1.15;;
40459;SDS011;26164;51.138;16.952;2023-10-31T03:30:06;3.60;;;1.20;;
40459;SDS011;26164;51.138;16.952;2023-10-31T03:32:32;8.57;;;0.93;;
40459;SDS011;26164;51.138;16.952;2023-10-31T03:34:58;6.07;;;1.40;;
40459;SDS011;26164;51.138;16.952;2023-10-31T03:37:24;7.60;;;1.20;;
40459;SDS011;26164;51.138;16.952;2023-10-31T03:39:50;3.50;;;1.25;;
40459;SDS011;26164;51.138;16.952;2023-10-31T03:42:16;4.32;;;1.20;;
40459;SDS011;26164;51.138;16.952;2023-10-31T03:44:42;4.95;;;1.10;;
40459;SDS011;26164;51.138;16.952;2023-10-31T03:47:08;2.33;;;0.90;;
40459;SDS011;26164;51.138;16.952;2023-10-31T03:49:33;5.72;;;1.05;;
40459;SDS011;26164;51.138;16.952;2023-10-31T03:51:59;4.15;;;1.10;;
40459;SDS011;26164;51.138;16.952;2023-10-31T03:54:25;6.10;;;1.08;;
40459;SDS011;26164;51.138;16.952;2023-10-31T03:56:50;4.55;;;1.15;;
40459;SDS011;26164;51.138;16.952;2023-10-31T03:59:16;5.15;;;1.20;;
40459;SDS011;26164;51.138;16.952;2023-10-31T04:01:42;6.47;;;1.00;;
40459;SDS011;26164;51.138;16.952;2023-10-31T04:04:08;6.00;;;1.00;;
40459;SDS011;26164;51.138;16.952;2023-10-31T04:06:34;6.63;;;1.23;;
40459;SDS011;26164;51.138;16.952;2023-10-31T04:08:59;5.15;;;1.00;;
40459;SDS011;26164;51.138;16.952;2023-10-31T04:11:25;2.45;;;1.13;;
40459;SDS011;26164;51.138;16.952;2023-10-31T04:13:51;3.53;;;1.40;;
40459;SDS011;26164;51.138;16.952;2023-10-31T04:16:17;5.95;;;1.10;;
40459;SDS011;26164;51.138;16.952;2023-10-31T04:18:43;5.95;;;1.38;;
40459;SDS011;26164;51.138;16.952;2023-10-31T04:21:08;8.35;;;1.25;;
40459;SDS011;26164;51.138;16.952;2023-10-31T04:23:34;4.93;;;1.10;;
40459;SDS011;26164;51.138;16.952;2023-10-31T04:26:01;4.57;;;1.00;;
40459;SDS011;26164;51.138;16.952;2023-10-31T04:28:27;4.38;;;1.23;;
40459;SDS011;26164;51.138;16.952;2023-10-31T04:30:52;3.33;;;0.98;;
40459;SDS011;26164;51.138;16.952;2023-10-31T04:33:18;7.35;;;1.25;;
40459;SDS011;26164;51.138;16.952;2023-10-31T04:35:44;6.25;;;1.13;;
40459;SDS011;26164;51.138;16.952;2023-10-31T04:38:09;4.43;;;1.30;;
40459;SDS011;26164;51.138;16.952;2023-10-31T04:40:35;3.83;;;1.20;;
40459;SDS011;26164;51.138;16.952;2023-10-31T04:43:02;5.05;;;1.08;;
40459;SDS011;26164;51.138;16.952;2023-10-31T04:45:28;5.28;;;1.45;;
40459;SDS011;26164;51.138;16.952;2023-10-31T04:47:54;6.25;;;1.35;;
40459;SDS011;26164;51.138;16.952;2023-10-31T04:50:20;5.05;;;0.90;;
40459;SDS011;26164;51.138;16.952;2023-10-31T04:52:45;5.20;;;1.10;;
40459;SDS011;26164;51.138;16.952;2023-10-31T04:55:11;5.43;;;1.27;;
40459;SDS011;26164;51.138;16.952;2023-10-31T04:57:37;7.82;;;1.92;;
40459;SDS011;26164;51.138;16.952;2023-10-31T05:00:04;3.92;;;0.93;;
40459;SDS011;26164;51.138;16.952;2023-10-31T05:02:31;6.03;;;1.33;;
40459;SDS011;26164;51.138;16.952;2023-10-31T05:04:57;4.65;;;1.25;;
40459;SDS011;26164;51.138;16.952;2023-10-31T05:07:23;5.35;;;1.20;;
40459;SDS011;26164;51.138;16.952;2023-10-31T05:09:49;4.95;;;1.20;;
40459;SDS011;26164;51.138;16.952;2023-10-31T05:12:16;6.97;;;1.30;;
40459;SDS011;26164;51.138;16.952;2023-10-31T05:14:42;3.00;;;1.30;;
40459;SDS011;26164;51.138;16.952;2023-10-31T05:17:08;6.22;;;1.45;;
40459;SDS011;26164;51.138;16.952;2023-10-31T05:19:34;4.05;;;1.23;;
40459;SDS011;26164;51.138;16.952;2023-10-31T05:21:59;6.93;;;1.65;;
40459;SDS011;26164;51.138;16.952;2023-10-31T05:24:25;3.83;;;1.23;;
40459;SDS011;26164;51.138;16.952;2023-10-31T05:26:52;4.53;;;1.42;;
40459;SDS011;26164;51.138;16.952;2023-10-31T05:29:18;5.75;;;1.73;;
40459;SDS011;26164;51.138;16.952;2023-10-31T05:31:43;7.75;;;1.40;;
40459;SDS011;26164;51.138;16.952;2023-10-31T05:34:09;11.60;;;2.38;;
40459;SDS011;26164;51.138;16.952;2023-10-31T05:36:35;8.75;;;2.08;;
40459;SDS011;26164;51.138;16.952;2023-10-31T05:39:01;15.70;;;2.30;;
40459;SDS011;26164;51.138;16.952;2023-10-31T05:41:28;3.85;;;1.15;;
40459;SDS011;26164;51.138;16.952;2023-10-31T05:43:54;4.05;;;1.15;;
40459;SDS011;26164;51.138;16.952;2023-10-31T05:46:21;4.38;;;1.40;;
40459;SDS011;26164;51.138;16.952;2023-10-31T05:48:47;6.50;;;1.63;;
40459;SDS011;26164;51.138;16.952;2023-10-31T05:51:13;7.60;;;1.67;;
40459;SDS011;26164;51.138;16.952;2023-10-31T05:53:41;7.22;;;1.75;;
40459;SDS011;26164;51.138;16.952;2023-10-31T05:56:08;12.40;;;1.80;;
40459;SDS011;26164;51.138;16.952;2023-10-31T05:58:37;4.40;;;1.67;;
40459;SDS011;26164;51.138;16.952;2023-10-31T06:01:03;8.18;;;1.80;;
40459;SDS011;26164;51.138;16.952;2023-10-31T06:03:29;9.40;;;1.95;;
40459;SDS011;26164;51.138;16.952;2023-10-31T06:05:55;12.27;;;2.17;;
40459;SDS011;26164;51.138;16.952;2023-10-31T06:08:21;7.47;;;2.22;;
40459;SDS011;26164;51.138;16.952;2023-10-31T06:10:50;10.05;;;1.80;;
40459;SDS011;26164;51.138;16.952;2023-10-31T06:13:16;6.57;;;2.17;;
40459;SDS011;26164;51.138;16.952;2023-10-31T06:15:42;8.48;;;2.38;;
40459;SDS011;26164;51.138;16.952;2023-10-31T06:18:09;16.13;;;2.13;;
40459;SDS011;26164;51.138;16.952;2023-10-31T06:20:35;11.43;;;2.10;;
40459;SDS011;26164;51.138;16.952;2023-10-31T06:23:02;6.25;;;1.85;;
40459;SDS011;26164;51.138;16.952;2023-10-31T06:25:32;7.05;;;2.10;;
40459;SDS011;26164;51.138;16.952;2023-10-31T06:27:58;6.45;;;1.65;;
40459;SDS011;26164;51.138;16.952;2023-10-31T06:30:23;6.00;;;2.10;;
40459;SDS011;26164;51.138;16.952;2023-10-31T06:32:53;7.80;;;2.35;;
40459;SDS011;26164;51.138;16.952;2023-10-31T06:35:19;6.10;;;1.90;;
40459;SDS011;26164;51.138;16.952;2023-10-31T06:37:45;9.25;;;2.58;;
40459;SDS011;26164;51.138;16.952;2023-10-31T06:40:11;12.05;;;2.88;;
40459;SDS011;26164;51.138;16.952;2023-10-31T06:42:37;9.38;;;2.33;;
40459;SDS011;26164;51.138;16.952;2023-10-31T06:45:03;8.07;;;2.25;;
40459;SDS011;26164;51.138;16.952;2023-10-31T06:47:30;4.60;;;2.13;;
40459;SDS011;26164;51.138;16.952;2023-10-31T06:49:55;4.82;;;1.80;;
40459;SDS011;26164;51.138;16.952;2023-10-31T06:52:21;5.07;;;2.08;;
40459;SDS011;26164;51.138;16.952;2023-10-31T06:54:47;13.48;;;2.60;;
40459;SDS011;26164;51.138;16.952;2023-10-31T06:57:13;8.02;;;2.20;;
40459;SDS011;26164;51.138;16.952;2023-10-31T06:59:40;6.05;;;2.25;;
40459;SDS011;26164;51.138;16.952;2023-10-31T07:02:07;5.57;;;2.33;;
40459;SDS011;26164;51.138;16.952;2023-10-31T07:04:34;9.50;;;2.53;;
40459;SDS011;26164;51.138;16.952;2023-10-31T07:07:00;11.85;;;2.65;;
40459;SDS011;26164;51.138;16.952;2023-10-31T07:09:26;8.88;;;2.80;;
40459;SDS011;26164;51.138;16.952;2023-10-31T07:11:52;7.05;;;2.60;;
40459;SDS011;26164;51.138;16.952;2023-10-31T07:14:18;8.98;;;4.28;;
40459;SDS011;26164;51.138;16.952;2023-10-31T07:16:44;12.25;;;5.55;;
40459;SDS011;26164;51.138;16.952;2023-10-31T07:19:10;10.98;;;5.68;;
40459;SDS011;26164;51.138;16.952;2023-10-31T07:21:36;12.98;;;5.55;;
40459;SDS011;26164;51.138;16.952;2023-10-31T07:24:02;9.70;;;4.18;;
40459;SDS011;26164;51.138;16.952;2023-10-31T07:26:28;6.65;;;3.60;;
40459;SDS011;26164;51.138;16.952;2023-10-31T07:28:54;8.50;;;3.60;;
40459;SDS011;26164;51.138;16.952;2023-10-31T07:31:20;4.85;;;2.28;;
40459;SDS011;26164;51.138;16.952;2023-10-31T07:33:46;6.13;;;2.92;;
40459;SDS011;26164;51.138;16.952;2023-10-31T07:36:13;6.03;;;2.60;;
40459;SDS011;26164;51.138;16.952;2023-10-31T07:38:38;10.80;;;3.95;;
40459;SDS011;26164;51.138;16.952;2023-10-31T07:41:04;9.40;;;3.53;;
40459;SDS011;26164;51.138;16.952;2023-10-31T07:43:30;7.90;;;2.40;;
40459;SDS011;26164;51.138;16.952;2023-10-31T07:45:56;5.97;;;2.55;;
40459;SDS011;26164;51.138;16.952;2023-10-31T07:48:22;6.82;;;3.25;;
40459;SDS011;26164;51.138;16.952;2023-10-31T07:50:47;3.38;;;1.65;;
40459;SDS011;26164;51.138;16.952;2023-10-31T07:53:13;5.13;;;1.33;;
40459;SDS011;26164;51.138;16.952;2023-10-31T07:55:39;4.30;;;0.90;;
40459;SDS011;26164;51.138;16.952;2023-10-31T07:58:05;1.50;;;0.75;;
40459;SDS011;26164;51.138;16.952;2023-10-31T08:00:31;2.90;;;0.85;;
40459;SDS011;26164;51.138;16.952;2023-10-31T08:02:58;2.50;;;0.80;;
40459;SDS011;26164;51.138;16.952;2023-10-31T08:05:24;1.45;;;0.70;;
40459;SDS011;26164;51.138;16.952;2023-10-31T08:07:49;1.55;;;0.47;;
40459;SDS011;26164;51.138;16.952;2023-10-31T08:10:16;1.15;;;0.40;;
40459;SDS011;26164;51.138;16.952;2023-10-31T08:12:41;1.52;;;0.60;;
40459;SDS011;26164;51.138;16.952;2023-10-31T08:15:07;2.25;;;0.98;;
40459;SDS011;26164;51.138;16.952;2023-10-31T08:17:36;3.45;;;0.60;;
40459;SDS011;26164;51.138;16.952;2023-10-31T08:20:03;1.10;;;0.50;;
40459;SDS011;26164;51.138;16.952;2023-10-31T08:22:29;1.73;;;0.82;;
40459;SDS011;26164;51.138;16.952;2023-10-31T08:24:55;1.02;;;0.60;;
40459;SDS011;26164;51.138;16.952;2023-10-31T08:27:20;1.75;;;0.70;;
40459;SDS011;26164;51.138;16.952;2023-10-31T08:29:47;1.08;;;0.55;;
40459;SDS011;26164;51.138;16.952;2023-10-31T08:32:12;2.17;;;0.68;;
40459;SDS011;26164;51.138;16.952;2023-10-31T08:34:38;2.67;;;0.55;;
40459;SDS011;26164;51.138;16.952;2023-10-31T08:37:04;3.83;;;0.70;;
40459;SDS011;26164;51.138;16.952;2023-10-31T08:39:30;2.10;;;0.60;;
40459;SDS011;26164;51.138;16.952;2023-10-31T08:41:56;0.88;;;0.45;;
40459;SDS011;26164;51.138;16.952;2023-10-31T08:44:23;1.58;;;0.60;;
40459;SDS011;26164;51.138;16.952;2023-10-31T08:46:50;0.90;;;0.40;;
40459;SDS011;26164;51.138;16.952;2023-10-31T08:49:16;1.33;;;0.70;;
40459;SDS011;26164;51.138;16.952;2023-10-31T08:51:42;2.25;;;0.50;;
40459;SDS011;26164;51.138;16.952;2023-10-31T08:54:08;1.08;;;0.57;;
40459;SDS011;26164;51.138;16.952;2023-10-31T08:56:35;1.55;;;0.60;;
40459;SDS011;26164;51.138;16.952;2023-10-31T08:59:00;2.40;;;0.60;;
40459;SDS011;26164;51.138;16.952;2023-10-31T09:01:26;1.42;;;0.68;;
40459;SDS011;26164;51.138;16.952;2023-10-31T09:03:54;2.50;;;0.80;;
40459;SDS011;26164;51.138;16.952;2023-10-31T09:06:20;2.13;;;0.60;;
40459;SDS011;26164;51.138;16.952;2023-10-31T09:08:46;2.45;;;0.60;;
40459;SDS011;26164;51.138;16.952;2023-10-31T09:11:12;1.25;;;0.45;;
40459;SDS011;26164;51.138;16.952;2023-10-31T09:13:38;1.58;;;0.25;;
40459;SDS011;26164;51.138;16.952;2023-10-31T09:16:03;8.48;;;3.80;;
40459;SDS011;26164;51.138;16.952;2023-10-31T09:18:30;1.45;;;0.55;;
40459;SDS011;26164;51.138;16.952;2023-10-31T09:20:56;2.50;;;0.65;;
40459;SDS011;26164;51.138;16.952;2023-10-31T09:23:21;1.67;;;0.43;;
40459;SDS011;26164;51.138;16.952;2023-10-31T09:25:48;1.30;;;0.47;;
40459;SDS011;26164;51.138;16.952;2023-10-31T09:28:14;1.20;;;0.50;;
40459;SDS011;26164;51.138;16.952;2023-10-31T09:30:40;1.88;;;0.70;;
40459;SDS011;26164;51.138;16.952;2023-10-31T09:33:06;1.63;;;0.43;;
40459;SDS011;26164;51.138;16.952;2023-10-31T09:35:32;3.92;;;0.70;;
40459;SDS011;26164;51.138;16.952;2023-10-31T09:37:58;1.20;;;0.40;;
40459;SDS011;26164;51.138;16.952;2023-10-31T09:40:24;1.00;;;0.43;;
40459;SDS011;26164;51.138;16.952;2023-10-31T09:42:50;1.55;;;0.50;;
40459;SDS011;26164;51.138;16.952;2023-10-31T09:45:16;0.80;;;0.40;;
40459;SDS011;26164;51.138;16.952;2023-10-31T09:47:43;1.15;;;0.40;;
40459;SDS011;26164;51.138;16.952;2023-10-31T09:50:09;1.35;;;0.40;;
40459;SDS011;26164;51.138;16.952;2023-10-31T09:52:36;0.90;;;0.40;;
40459;SDS011;26164;51.138;16.952;2023-10-31T09:55:02;3.97;;;0.60;;
40459;SDS011;26164;51.138;16.952;2023-10-31T09:57:31;1.23;;;0.40;;
40459;SDS011;26164;51.138;16.952;2023-10-31T09:59:56;0.82;;;0.38;;
40459;SDS011;26164;51.138;16.952;2023-10-31T10:02:24;1.58;;;0.43;;
40459;SDS011;26164;51.138;16.952;2023-10-31T10:04:50;0.88;;;0.40;;
40459;SDS011;26164;51.138;16.952;2023-10-31T10:07:20;1.05;;;0.40;;
40459;SDS011;26164;51.138;16.952;2023-10-31T10:09:49;1.23;;;0.50;;
40459;SDS011;26164;51.138;16.952;2023-10-31T10:12:16;1.88;;;0.60;;
40459;SDS011;26164;51.138;16.952;2023-10-31T10:14:42;2.85;;;0.63;;
40459;SDS011;26164;51.138;16.952;2023-10-31T10:17:17;2.83;;;0.57;;
40459;SDS011;26164;51.138;16.952;2023-10-31T10:19:45;0.77;;;0.47;;
40459;SDS011;26164;51.138;16.952;2023-10-31T10:22:11;1.20;;;0.40;;
40459;SDS011;26164;51.138;16.952;2023-10-31T10:24:39;1.35;;;0.30;;
40459;SDS011;26164;51.138;16.952;2023-10-31T10:27:06;3.97;;;0.35;;
40459;SDS011;26164;51.138;16.952;2023-10-31T10:29:33;1.50;;;0.30;;
40459;SDS011;26164;51.138;16.952;2023-10-31T10:32:00;1.23;;;0.40;;
40459;SDS011;26164;51.138;16.952;2023-10-31T10:34:26;2.15;;;0.20;;
40459;SDS011;26164;51.138;16.952;2023-10-31T10:36:52;2.65;;;0.35;;
40459;SDS011;26164;51.138;16.952;2023-10-31T10:39:20;1.40;;;0.40;;
40459;SDS011;26164;51.138;16.952;2023-10-31T10:41:54;1.42;;;0.40;;
40459;SDS011;26164;51.138;16.952;2023-10-31T10:44:25;0.85;;;0.30;;
40459;SDS011;26164;51.138;16.952;2023-10-31T10:46:58;3.35;;;0.63;;
40459;SDS011;26164;51.138;16.952;2023-10-31T10:49:27;1.40;;;0.30;;
40459;SDS011;26164;51.138;16.952;2023-10-31T10:54:53;2.75;;;0.30;;
40459;SDS011;26164;51.138;16.952;2023-10-31T10:57:46;3.95;;;0.43;;
40459;SDS011;26164;51.138;16.952;2023-10-31T11:00:20;2.22;;;0.25;;
40459;SDS011;26164;51.138;16.952;2023-10-31T11:02:53;0.68;;;0.30;;
40459;SDS011;26164;51.138;16.952;2023-10-31T11:05:20;1.30;;;0.30;;
40459;SDS011;26164;51.138;16.952;2023-10-31T11:07:48;1.42;;;0.40;;
40459;SDS011;26164;51.138;16.952;2023-10-31T11:10:19;0.63;;;0.20;;
40459;SDS011;26164;51.138;16.952;2023-10-31T11:12:45;2.35;;;0.22;;
40459;SDS011;26164;51.138;16.952;2023-10-31T11:15:11;1.02;;;0.30;;
40459;SDS011;26164;51.138;16.952;2023-10-31T11:17:40;3.53;;;0.40;;
40459;SDS011;26164;51.138;16.952;2023-10-31T11:20:10;1.58;;;0.30;;
40459;SDS011;26164;51.138;16.952;2023-10-31T11:22:40;3.67;;;0.32;;
40459;SDS011;26164;51.138;16.952;2023-10-31T11:25:08;1.42;;;0.20;;
40459;SDS011;26164;51.138;16.952;2023-10-31T11:27:35;1.20;;;0.32;;
40459;SDS011;26164;51.138;16.952;2023-10-31T11:30:08;4.38;;;0.30;;
40459;SDS011;26164;51.138;16.952;2023-10-31T11:32:55;0.85;;;0.20;;
40459;SDS011;26164;51.138;16.952;2023-10-31T11:35:22;1.15;;;0.20;;
40459;SDS011;26164;51.138;16.952;2023-10-31T11:37:49;0.57;;;0.25;;
40459;SDS011;26164;51.138;16.952;2023-10-31T11:40:25;3.00;;;0.30;;
40459;SDS011;26164;51.138;16.952;2023-10-31T11:42:52;1.50;;;0.30;;
40459;SDS011;26164;51.138;16.952;2023-10-31T11:45:27;2.30;;;0.30;;
40459;SDS011;26164;51.138;16.952;2023-10-31T11:47:59;3.70;;;0.30;;
40459;SDS011;26164;51.138;16.952;2023-10-31T11:50:25;2.08;;;0.32;;
40459;SDS011;26164;51.138;16.952;2023-10-31T11:52:58;3.15;;;0.35;;
40459;SDS011;26164;51.138;16.952;2023-10-31T11:55:25;3.75;;;0.50;;
40459;SDS011;26164;51.138;16.952;2023-10-31T11:57:50;1.50;;;0.30;;
40459;SDS011;26164;51.138;16.952;2023-10-31T12:00:21;2.33;;;0.20;;
40459;SDS011;26164;51.138;16.952;2023-10-31T12:03:01;1.42;;;0.30;;
40459;SDS011;26164;51.138;16.952;2023-10-31T12:05:27;2.38;;;0.30;;
40459;SDS011;26164;51.138;16.952;2023-10-31T12:07:53;1.88;;;0.20;;
40459;SDS011;26164;51.138;16.952;2023-10-31T12:10:23;1.85;;;0.30;;
40459;SDS011;26164;51.138;16.952;2023-10-31T12:12:51;0.35;;;0.15;;
40459;SDS011;26164;51.138;16.952;2023-10-31T12:15:17;1.95;;;0.25;;
40459;SDS011;26164;51.138;16.952;2023-10-31T12:17:43;1.60;;;0.30;;
40459;SDS011;26164;51.138;16.952;2023-10-31T12:20:09;6.30;;;0.30;;
40459;SDS011;26164;51.138;16.952;2023-10-31T12:22:35;0.73;;;0.10;;
40459;SDS011;26164;51.138;16.952;2023-10-31T12:25:01;1.15;;;0.20;;
40459;SDS011;26164;51.138;16.952;2023-10-31T12:27:48;2.33;;;0.20;;
40459;SDS011;26164;51.138;16.952;2023-10-31T12:30:16;0.90;;;0.30;;
40459;SDS011;26164;51.138;16.952;2023-10-31T12:32:44;0.50;;;0.20;;
40459;SDS011;26164;51.138;16.952;2023-10-31T12:35:12;1.30;;;0.22;;
40459;SDS011;26164;51.138;16.952;2023-10-31T12:37:47;0.30;;;0.10;;
40459;SDS011;26164;51.138;16.952;2023-10-31T12:40:14;0.63;;;0.20;;
40459;SDS011;26164;51.138;16.952;2023-10-31T12:42:49;2.00;;;0.20;;
40459;SDS011;26164;51.138;16.952;2023-10-31T12:45:16;1.27;;;0.28;;
40459;SDS011;26164;51.138;16.952;2023-10-31T12:47:43;2.03;;;0.30;;
40459;SDS011;26164;51.138;16.952;2023-10-31T12:52:52;2.05;;;0.20;;
40459;SDS011;26164;51.138;16.952;2023-10-31T12:55:19;0.60;;;0.28;;
40459;SDS011;26164;51.138;16.952;2023-10-31T12:57:47;2.58;;;0.30;;
40459;SDS011;26164;51.138;16.952;2023-10-31T13:00:17;1.45;;;0.15;;
40459;SDS011;26164;51.138;16.952;2023-10-31T13:02:50;0.77;;;0.25;;
40459;SDS011;26164;51.138;16.952;2023-10-31T13:05:17;1.42;;;0.20;;
40459;SDS011;26164;51.138;16.952;2023-10-31T13:07:50;0.75;;;0.17;;
40459;SDS011;26164;51.138;16.952;2023-10-31T13:10:18;1.63;;;0.28;;
40459;SDS011;26164;51.138;16.952;2023-10-31T13:12:45;1.13;;;0.30;;
40459;SDS011;26164;51.138;16.952;2023-10-31T13:15:15;1.40;;;0.40;;
40459;SDS011;26164;51.138;16.952;2023-10-31T13:17:44;3.08;;;0.60;;
40459;SDS011;26164;51.138;16.952;2023-10-31T13:20:10;3.05;;;0.50;;
40459;SDS011;26164;51.138;16.952;2023-10-31T13:22:38;2.20;;;0.50;;
40459;SDS011;26164;51.138;16.952;2023-10-31T13:25:05;1.92;;;0.38;;
40459;SDS011;26164;51.138;16.952;2023-10-31T13:27:34;1.45;;;0.40;;
40459;SDS011;26164;51.138;16.952;2023-10-31T13:30:03;1.65;;;0.45;;
40459;SDS011;26164;51.138;16.952;2023-10-31T13:32:31;1.63;;;0.40;;
40459;SDS011;26164;51.138;16.952;2023-10-31T13:34:57;2.92;;;0.50;;
40459;SDS011;26164;51.138;16.952;2023-10-31T13:37:23;8.75;;;0.80;;
40459;SDS011;26164;51.138;16.952;2023-10-31T13:39:50;2.55;;;0.60;;
40459;SDS011;26164;51.138;16.952;2023-10-31T13:42:16;1.65;;;0.32;;
40459;SDS011;26164;51.138;16.952;2023-10-31T13:44:41;1.23;;;0.30;;
40459;SDS011;26164;51.138;16.952;2023-10-31T13:47:08;1.67;;;0.45;;
40459;SDS011;26164;51.138;16.952;2023-10-31T13:49:34;1.98;;;0.50;;
40459;SDS011;26164;51.138;16.952;2023-10-31T13:52:01;1.38;;;0.43;;
40459;SDS011;26164;51.138;16.952;2023-10-31T13:54:27;3.58;;;0.32;;
40459;SDS011;26164;51.138;16.952;2023-10-31T13:56:53;2.17;;;0.30;;
40459;SDS011;26164;51.138;16.952;2023-10-31T13:59:18;1.92;;;0.30;;
40459;SDS011;26164;51.138;16.952;2023-10-31T14:01:45;1.35;;;0.40;;
40459;SDS011;26164;51.138;16.952;2023-10-31T14:04:12;2.03;;;0.40;;
40459;SDS011;26164;51.138;16.952;2023-10-31T14:06:42;1.38;;;0.32;;
40459;SDS011;26164;51.138;16.952;2023-10-31T14:09:08;2.00;;;0.35;;
40459;SDS011;26164;51.138;16.952;2023-10-31T14:11:35;1.95;;;0.45;;
40459;SDS011;26164;51.138;16.952;2023-10-31T14:14:01;1.17;;;0.40;;
40459;SDS011;26164;51.138;16.952;2023-10-31T14:16:39;1.10;;;0.30;;
40459;SDS011;26164;51.138;16.952;2023-10-31T14:19:05;2.38;;;0.65;;
40459;SDS011;26164;51.138;16.952;2023-10-31T14:21:33;3.80;;;0.65;;
40459;SDS011;26164;51.138;16.952;2023-10-31T14:24:00;4.82;;;0.68;;
40459;SDS011;26164;51.138;16.952;2023-10-31T14:26:26;4.50;;;0.95;;
40459;SDS011;26164;51.138;16.952;2023-10-31T14:28:53;2.97;;;0.80;;
40459;SDS011;26164;51.138;16.952;2023-10-31T14:31:19;2.58;;;0.60;;
40459;SDS011;26164;51.138;16.952;2023-10-31T14:33:48;2.42;;;0.50;;
40459;SDS011;26164;51.138;16.952;2023-10-31T14:36:14;2.95;;;0.82;;